createdAt,value
2019-03-11T00:01:45.366Z,71.20
2019-03-11T00:04:30.437Z,71.10
2019-03-11T00:07:10.910Z,71.40
2019-03-11T00:09:47.473Z,71.10
2019-03-11T00:12:24.566Z,70.40
2019-03-11T00:15:03.695Z,70.10
2019-03-11T00:17:42.603Z,70.20
2019-03-11T00:20:19.682Z,69.80
2019-03-11T00:22:57.586Z,69.80
2019-03-11T00:25:37.945Z,68.80
2019-03-11T00:28:21.579Z,68.30
2019-03-11T00:30:59.479Z,67.80
2019-03-11T00:33:37.832Z,67.40
2019-03-11T00:36:14.870Z,67.60
2019-03-11T00:38:54.820Z,67.40
2019-03-11T00:41:30.300Z,67.30
2019-03-11T00:44:17.766Z,67.50
2019-03-11T00:46:53.290Z,67.70
2019-03-11T00:49:28.298Z,67.40
2019-03-11T00:52:03.710Z,67.20
2019-03-11T00:54:42.639Z,67.00
2019-03-11T00:57:19.724Z,67.10
2019-03-11T00:59:56.834Z,67.00
2019-03-11T01:02:31.838Z,67.10
2019-03-11T01:05:09.936Z,67.00
2019-03-11T01:07:52.970Z,67.20
2019-03-11T01:10:39.880Z,67.50
2019-03-11T01:13:19.814Z,66.80
2019-03-11T01:16:10.824Z,66.50
2019-03-11T01:18:49.346Z,66.70
2019-03-11T01:21:24.781Z,66.70
2019-03-11T01:24:19.886Z,67.60
2019-03-11T01:26:56.969Z,69.00
2019-03-11T01:29:33.231Z,69.60
2019-03-11T01:32:17.888Z,70.30
2019-03-11T01:34:52.928Z,70.80
2019-03-11T01:37:39.038Z,70.80
2019-03-11T01:40:27.525Z,71.20
2019-03-11T01:43:07.930Z,71.40
2019-03-11T01:45:54.850Z,70.60
2019-03-11T01:48:33.969Z,69.80
2019-03-11T01:51:13.938Z,70.10
2019-03-11T01:53:52.386Z,69.90
2019-03-11T01:56:46.119Z,69.60
2019-03-11T01:59:21.958Z,68.90
2019-03-11T02:01:56.987Z,69.20
2019-03-11T02:04:35.799Z,69.50
2019-03-11T02:07:11.163Z,69.40
2019-03-11T02:09:53.403Z,69.30
2019-03-11T02:12:28.998Z,69.50
2019-03-11T02:15:13.049Z,69.90
2019-03-11T02:17:49.942Z,70.30
2019-03-11T02:20:26.419Z,70.60
2019-03-11T02:23:07.155Z,71.10
2019-03-11T02:25:41.987Z,71.10
2019-03-11T02:28:20.304Z,71.10
2019-03-11T02:33:50.027Z,71.60
2019-03-11T02:36:29.366Z,71.60
2019-03-11T02:39:06.039Z,71.50
2019-03-11T02:41:41.906Z,71.70
2019-03-11T02:44:40.915Z,71.70
2019-03-11T02:50:58.943Z,72.70
2019-03-11T02:53:41.983Z,73.20
2019-03-11T02:56:21.920Z,73.70
2019-03-11T02:59:00.228Z,73.70
2019-03-11T03:01:54.937Z,73.70
2019-03-11T03:04:45.406Z,74.00
2019-03-11T03:07:22.575Z,74.10
2019-03-11T03:10:00.901Z,74.10
2019-03-11T03:12:35.930Z,74.00
2019-03-11T03:15:16.918Z,74.00
2019-03-11T03:18:10.782Z,74.00
2019-03-11T03:20:57.699Z,72.40
2019-03-11T03:23:59.984Z,72.60
2019-03-11T03:26:39.916Z,72.10
2019-03-11T03:29:21.306Z,72.00
2019-03-11T03:31:59.822Z,71.80
2019-03-11T03:34:39.773Z,71.70
2019-03-11T03:37:18.415Z,71.80
2019-03-11T03:39:58.640Z,71.70
2019-03-11T03:42:37.990Z,71.90
2019-03-11T03:45:42.413Z,71.40
2019-03-11T03:48:31.491Z,71.10
2019-03-11T03:51:16.417Z,71.80
2019-03-11T03:53:52.783Z,71.80
2019-03-11T03:56:32.323Z,72.20
2019-03-11T03:59:17.320Z,72.10
2019-03-11T04:02:01.147Z,72.60
2019-03-11T04:04:42.037Z,72.50
2019-03-11T04:07:20.931Z,72.50
2019-03-11T04:10:02.923Z,72.70
2019-03-11T04:12:46.763Z,72.60
2019-03-11T04:15:27.415Z,72.90
2019-03-11T04:18:05.029Z,73.00
2019-03-11T04:21:00.329Z,73.10
2019-03-11T04:23:34.953Z,73.00
2019-03-11T04:26:14.079Z,73.00
2019-03-11T04:28:52.186Z,73.60
2019-03-11T04:31:39.419Z,73.30
2019-03-11T04:34:14.962Z,73.20
2019-03-11T04:36:53.062Z,73.10
2019-03-11T04:39:34.861Z,73.30
2019-03-11T04:42:18.434Z,73.60
2019-03-11T04:44:58.842Z,73.20
2019-03-11T04:47:42.905Z,73.30
2019-03-11T04:50:29.749Z,73.10
2019-03-11T04:56:34.957Z,72.60
2019-03-11T04:59:20.868Z,72.50
2019-03-11T05:02:01.447Z,72.50
2019-03-11T05:04:39.310Z,71.90
2019-03-11T05:07:20.424Z,72.40
2019-03-11T05:10:08.015Z,72.00
2019-03-11T05:12:50.031Z,71.50
2019-03-11T05:15:32.006Z,71.10
2019-03-11T05:18:11.138Z,71.40
2019-03-11T05:20:51.071Z,71.60
2019-03-11T05:23:37.454Z,71.30
2019-03-11T05:26:21.816Z,71.50
2019-03-11T05:28:58.925Z,71.80
2019-03-11T05:31:59.968Z,71.80
2019-03-11T05:34:40.981Z,71.00
2019-03-11T05:47:46.976Z,71.00
2019-03-11T05:50:24.041Z,71.00
2019-03-11T05:53:07.432Z,71.20
2019-03-11T05:55:47.023Z,71.20
2019-03-11T05:58:32.900Z,71.20
2019-03-11T06:01:11.215Z,71.50
2019-03-11T06:03:50.947Z,71.50
2019-03-11T06:10:10.663Z,71.60
2019-03-11T06:12:54.881Z,71.60
2019-03-11T06:15:41.002Z,71.60
2019-03-11T06:18:38.761Z,71.90
2019-03-11T06:21:38.165Z,72.00
2019-03-11T06:24:20.807Z,72.30
2019-03-11T06:27:05.041Z,72.70
2019-03-11T06:29:43.946Z,73.10
2019-03-11T06:32:29.839Z,73.70
2019-03-11T06:35:29.239Z,74.60
2019-03-11T06:38:15.953Z,75.10
2019-03-11T06:47:21.942Z,76.10
2019-03-11T06:57:13.464Z,76.40
2019-03-11T07:00:12.453Z,76.30
2019-03-11T07:06:30.054Z,76.20
2019-03-11T07:12:50.978Z,77.30
2019-03-11T07:19:39.766Z,78.60
2019-03-11T07:22:14.794Z,79.70
2019-03-11T07:24:54.468Z,80.70
2019-03-11T07:27:31.019Z,82.60
2019-03-11T07:30:13.458Z,83.50
2019-03-11T07:32:53.355Z,84.50
2019-03-11T07:35:31.882Z,85.80
2019-03-11T07:38:10.643Z,87.00
2019-03-11T07:40:47.061Z,87.20
2019-03-11T07:43:22.707Z,87.60
2019-03-11T07:46:00.467Z,87.50
2019-03-11T07:48:41.988Z,88.50
2019-03-11T07:55:17.498Z,89.20
2019-03-11T07:57:55.977Z,88.70
2019-03-11T08:00:39.319Z,89.30
2019-03-11T08:03:14.486Z,89.30
2019-03-11T08:05:55.221Z,89.40
2019-03-11T08:08:55.911Z,89.20
2019-03-11T08:11:33.951Z,88.70
2019-03-11T08:14:16.161Z,88.00
2019-03-11T08:17:02.038Z,88.60
2019-03-11T08:19:49.087Z,87.30
2019-03-11T08:22:24.182Z,87.40
2019-03-11T08:25:07.212Z,87.20
2019-03-11T08:27:48.402Z,87.60
2019-03-11T08:38:05.363Z,87.50
2019-03-11T08:40:42.993Z,87.20
2019-03-11T08:53:38.761Z,84.40
2019-03-11T08:56:20.524Z,84.40
2019-03-11T08:58:58.413Z,84.70
2019-03-11T09:01:40.415Z,84.70
2019-03-11T09:07:38.430Z,85.20
2019-03-11T09:10:36.180Z,84.50
2019-03-11T09:13:19.857Z,85.20
2019-03-11T09:19:33.367Z,85.30
2019-03-11T09:22:19.448Z,85.00
2019-03-11T09:28:42.446Z,84.90
2019-03-11T09:31:48.916Z,85.50
2019-03-11T09:35:05.881Z,85.50
2019-03-11T09:41:25.713Z,86.40
2019-03-11T09:44:19.886Z,86.50
2019-03-11T09:47:04.662Z,86.40
2019-03-11T09:49:45.426Z,85.50
2019-03-11T09:52:25.886Z,85.60
2019-03-11T09:55:09.430Z,85.60
2019-03-11T09:57:59.415Z,85.80
2019-03-11T10:00:38.544Z,85.00
2019-03-11T10:03:26.472Z,84.50
2019-03-11T10:09:38.385Z,84.30
2019-03-11T10:12:27.149Z,83.40
2019-03-11T10:15:11.198Z,84.00
2019-03-11T10:18:00.490Z,84.20
2019-03-11T10:20:59.552Z,82.10
2019-03-11T10:23:48.521Z,83.40
2019-03-11T10:26:31.782Z,82.40
2019-03-11T10:35:48.790Z,82.50
2019-03-11T10:42:06.848Z,83.20
2019-03-11T10:48:37.145Z,82.20
2019-03-11T10:54:55.261Z,82.00
2019-03-11T10:57:31.527Z,80.80
2019-03-11T11:00:10.240Z,81.10
2019-03-11T11:03:02.523Z,80.70
2019-03-11T11:05:40.175Z,81.60
2019-03-11T11:12:01.307Z,82.90
2019-03-11T11:14:41.869Z,83.60
2019-03-11T11:17:24.262Z,83.50
2019-03-11T11:20:16.511Z,83.00
2019-03-11T11:25:52.408Z,81.40
2019-03-11T11:32:13.356Z,80.50
2019-03-11T11:38:19.905Z,79.50
2019-03-11T11:43:34.976Z,77.30
2019-03-11T11:46:16.883Z,78.00
2019-03-11T11:48:55.961Z,77.70
2019-03-11T11:55:25.347Z,76.90
2019-03-11T11:58:07.564Z,77.70
2019-03-11T12:00:50.560Z,77.90
2019-03-11T12:03:34.405Z,77.90
2019-03-11T12:06:27.904Z,79.30
2019-03-11T12:12:40.708Z,88.70
2019-03-11T12:15:34.063Z,92.60
2019-03-11T12:18:11.991Z,94.20
2019-03-11T12:20:56.636Z,94.50
2019-03-11T12:23:51.029Z,95.10
2019-03-11T12:33:27.086Z,95.80
2019-03-11T12:39:48.307Z,93.80
2019-03-11T12:56:42.749Z,90.70
2019-03-11T13:06:52.639Z,89.20
2019-03-11T13:09:45.485Z,89.00
2019-03-11T13:18:57.021Z,88.40
2019-03-11T13:21:42.696Z,87.90
2019-03-11T13:24:23.457Z,87.10
2019-03-11T13:27:12.843Z,86.00
2019-03-11T13:33:06.950Z,87.20
2019-03-11T13:35:56.677Z,85.80
2019-03-11T13:42:22.970Z,86.30
2019-03-11T13:45:13.219Z,85.50
2019-03-11T13:52:29.790Z,85.60
2019-03-11T14:15:37.718Z,83.90
2019-03-11T14:18:53.708Z,82.00
2019-03-11T14:21:37.756Z,83.10
2019-03-11T14:24:30.620Z,80.80
2019-03-11T14:39:40.746Z,80.60
2019-03-11T14:42:40.750Z,80.90
2019-03-11T14:49:12.127Z,78.50
2019-03-11T14:55:20.773Z,77.60
2019-03-11T15:04:30.453Z,77.00
2019-03-11T15:07:12.800Z,76.60
2019-03-11T15:10:16.542Z,75.80
2019-03-11T15:13:02.868Z,76.30
2019-03-11T15:15:50.800Z,75.90
2019-03-11T15:25:10.058Z,77.00
2019-03-11T15:27:48.257Z,76.60
2019-03-11T15:33:57.815Z,79.50
2019-03-11T15:36:44.178Z,83.90
2019-03-11T15:39:31.811Z,86.50
2019-03-11T15:42:01.430Z,87.70
2019-03-11T15:44:48.035Z,88.90
2019-03-11T15:47:24.065Z,90.30
2019-03-11T15:50:08.923Z,91.30
2019-03-11T15:52:46.009Z,91.90
2019-03-11T15:55:31.299Z,92.10
2019-03-11T16:01:42.390Z,91.80
2019-03-11T16:11:01.736Z,90.50
2019-03-11T16:13:45.326Z,90.30
2019-03-11T16:16:29.381Z,89.60
2019-03-11T16:19:13.226Z,88.60
2019-03-11T16:21:53.572Z,87.60
2019-03-11T16:24:36.596Z,87.40
2019-03-11T16:27:17.565Z,86.80
2019-03-11T16:30:21.721Z,86.50
2019-03-11T16:33:06.129Z,85.50
2019-03-11T16:35:48.335Z,85.80
2019-03-11T16:42:02.528Z,85.40
2019-03-11T16:48:59.735Z,85.30
2019-03-11T16:51:35.329Z,84.50
2019-03-11T16:57:54.223Z,83.40
2019-03-11T17:04:13.738Z,83.40
2019-03-11T17:10:32.373Z,83.10
2019-03-11T17:17:01.167Z,84.20
2019-03-11T17:19:36.322Z,83.50
2019-03-11T17:22:14.429Z,84.20
2019-03-11T17:28:34.741Z,83.80
2019-03-11T17:31:10.745Z,83.30
2019-03-11T17:33:45.425Z,83.50
2019-03-11T17:39:44.440Z,83.60
2019-03-11T17:42:19.743Z,84.60
2019-03-11T17:44:56.358Z,84.40
2019-03-11T17:51:00.755Z,83.50
2019-03-11T17:53:46.167Z,83.70
2019-03-11T17:56:29.188Z,83.10
2019-03-11T17:59:04.768Z,83.30
2019-03-11T18:01:40.277Z,82.60
2019-03-11T18:07:45.436Z,82.40
2019-03-11T18:10:20.766Z,82.20
2019-03-11T18:12:55.510Z,82.40
2019-03-11T18:19:00.099Z,83.80
2019-03-11T18:25:06.434Z,85.90
2019-03-11T18:27:46.611Z,85.60
2019-03-11T18:30:25.776Z,85.70
2019-03-11T18:33:09.560Z,85.80
2019-03-11T18:35:47.104Z,85.70
2019-03-11T18:38:22.507Z,85.20
2019-03-11T18:40:58.138Z,84.70
2019-03-11T18:43:42.664Z,84.90
2019-03-11T18:46:20.552Z,85.10
2019-03-11T18:48:59.213Z,84.80
2019-03-11T18:51:57.807Z,85.00
2019-03-11T18:54:36.831Z,84.70
2019-03-11T18:57:12.615Z,84.80
2019-03-11T18:59:52.117Z,84.00
2019-03-11T19:02:33.613Z,84.40
2019-03-11T19:05:16.542Z,84.20
2019-03-11T19:07:55.500Z,84.10
2019-03-11T19:10:31.655Z,83.70
2019-03-11T19:13:10.950Z,83.70
2019-03-11T19:15:49.557Z,84.00
2019-03-11T19:18:24.179Z,84.10
2019-03-11T19:21:05.699Z,83.60
2019-03-11T19:23:41.413Z,83.70
2019-03-11T19:26:18.319Z,84.00
2019-03-11T19:28:53.150Z,84.00
2019-03-11T19:31:29.220Z,83.80
2019-03-11T19:34:06.716Z,84.10
2019-03-11T19:36:41.908Z,84.20
2019-03-11T19:39:23.255Z,84.20
2019-03-11T19:42:00.723Z,84.80
2019-03-11T19:44:36.244Z,85.00
2019-03-11T19:47:11.705Z,85.20
2019-03-11T19:49:49.577Z,85.50
2019-03-11T19:52:27.553Z,85.70
2019-03-11T19:55:07.419Z,86.30
2019-03-11T19:57:42.728Z,85.80
2019-03-11T20:00:23.464Z,86.60
2019-03-11T20:02:57.732Z,86.60
2019-03-11T20:05:35.129Z,86.60
2019-03-11T20:08:13.761Z,86.30
2019-03-11T20:10:50.319Z,86.40
2019-03-11T20:13:37.572Z,85.90
2019-03-11T20:16:14.443Z,86.10
2019-03-11T20:18:49.344Z,86.20
2019-03-11T20:21:32.058Z,86.90
2019-03-11T20:24:07.158Z,87.00
2019-03-11T20:26:42.008Z,87.10
2019-03-11T20:29:28.266Z,86.70
2019-03-11T20:32:03.933Z,87.20
2019-03-11T20:34:39.719Z,87.00
2019-03-11T20:37:20.723Z,87.00
2019-03-11T20:39:56.854Z,86.90
2019-03-11T20:42:34.382Z,86.90
2019-03-11T20:45:22.969Z,86.10
2019-03-11T20:47:58.545Z,85.40
2019-03-11T20:50:41.986Z,86.00
2019-03-11T20:53:11.235Z,86.30
2019-03-11T20:55:46.643Z,85.90
2019-03-11T20:58:20.681Z,85.10
2019-03-11T21:00:58.316Z,84.80
2019-03-11T21:03:33.603Z,84.80
2019-03-11T21:06:12.596Z,84.60
2019-03-11T21:08:49.909Z,84.60
2019-03-11T21:11:27.011Z,84.50
2019-03-11T21:14:20.522Z,84.70
2019-03-11T21:17:03.210Z,83.50
2019-03-11T21:19:44.934Z,83.60
2019-03-11T21:22:24.302Z,83.30
2019-03-11T21:25:03.623Z,83.60
2019-03-11T21:27:43.211Z,83.40
2019-03-11T21:30:23.207Z,83.00
2019-03-11T21:33:08.788Z,83.00
2019-03-11T21:35:49.307Z,83.10
2019-03-11T21:38:28.910Z,82.60
2019-03-11T21:41:05.813Z,82.60
2019-03-11T21:43:43.359Z,82.50
2019-03-11T21:46:21.776Z,82.50
2019-03-11T21:49:02.767Z,82.80
2019-03-11T21:51:39.333Z,83.30
2019-03-11T21:54:24.065Z,83.50
2019-03-11T21:56:58.327Z,83.10
2019-03-11T21:59:37.282Z,82.80
2019-03-11T22:02:11.465Z,82.70
2019-03-11T22:04:49.489Z,82.20
2019-03-11T22:07:30.072Z,82.40
2019-03-11T22:10:06.429Z,82.60
2019-03-11T22:12:43.211Z,82.40
2019-03-11T22:15:25.003Z,82.30
2019-03-11T22:18:03.724Z,82.70
2019-03-11T22:20:38.459Z,82.70
2019-03-11T22:23:13.790Z,82.50
2019-03-11T22:25:57.541Z,82.30
2019-03-11T22:28:32.047Z,82.70
2019-03-11T22:31:10.526Z,82.60
2019-03-11T22:33:55.441Z,82.10
2019-03-11T22:36:31.415Z,81.90
2019-03-11T22:39:08.494Z,81.60
2019-03-11T22:41:41.961Z,81.70
2019-03-11T22:44:19.049Z,81.80
2019-03-11T22:46:54.519Z,81.50
2019-03-11T22:49:34.512Z,81.20
2019-03-11T22:52:11.104Z,81.20
2019-03-11T22:54:48.001Z,81.40
2019-03-11T22:57:23.015Z,81.20
2019-03-11T23:00:00.575Z,81.50
2019-03-11T23:02:40.273Z,81.20
2019-03-11T23:05:16.547Z,81.10
2019-03-11T23:07:53.392Z,80.90
2019-03-11T23:10:35.192Z,81.10
2019-03-11T23:13:15.540Z,81.20
2019-03-11T23:15:55.086Z,81.30
2019-03-11T23:18:37.079Z,81.20
2019-03-11T23:21:15.184Z,81.10
2019-03-11T23:23:58.439Z,81.30
2019-03-11T23:29:36.649Z,81.00
2019-03-11T23:32:17.116Z,81.10
2019-03-11T23:34:55.826Z,81.10
2019-03-11T23:37:34.127Z,80.90
2019-03-11T23:40:16.145Z,81.00
2019-03-11T23:42:54.029Z,81.20
2019-03-11T23:45:35.425Z,81.10
2019-03-11T23:48:27.444Z,80.70
2019-03-11T23:51:14.563Z,80.90
2019-03-11T23:53:54.105Z,80.90
2019-03-11T23:56:33.430Z,81.30
2019-03-11T23:59:12.058Z,81.20
